sensor_id;sensor_type;location;lat;lon;timestamp;temperature;humidity
10314;DHT22;5202;49.138;10.090;2022-10-23T00:01:44;9.70;99.90
10314;DHT22;5202;49.138;10.090;2022-10-23T00:04:45;9.70;99.90
10314;DHT22;5202;49.138;10.090;2022-10-23T00:07:14;9.70;99.90
10314;DHT22;5202;49.138;10.090;2022-10-23T00:09:42;9.60;99.90
10314;DHT22;5202;49.138;10.090;2022-10-23T00:12:10;9.60;99.90
10314;DHT22;5202;49.138;10.090;2022-10-23T00:14:40;9.60;99.90
10314;DHT22;5202;49.138;10.090;2022-10-23T00:17:08;9.50;99.90
10314;DHT22;5202;49.138;10.090;2022-10-23T00:19:38;9.50;99.90
10314;DHT22;5202;49.138;10.090;2022-10-23T00:22:06;9.40;99.90
10314;DHT22;5202;49.138;10.090;2022-10-23T00:24:36;9.40;99.90
10314;DHT22;5202;49.138;10.090;2022-10-23T00:27:05;9.40;99.90
10314;DHT22;5202;49.138;10.090;2022-10-23T00:29:33;9.40;99.90
10314;DHT22;5202;49.138;10.090;2022-10-23T00:32:03;9.50;99.90
10314;DHT22;5202;49.138;10.090;2022-10-23T00:34:31;9.50;99.90
10314;DHT22;5202;49.138;10.090;2022-10-23T00:36:59;9.50;99.90
10314;DHT22;5202;49.138;10.090;2022-10-23T00:39:28;9.50;99.90
10314;DHT22;5202;49.138;10.090;2022-10-23T00:41:56;9.50;99.90
10314;DHT22;5202;49.138;10.090;2022-10-23T00:47:46;9.50;99.90
10314;DHT22;5202;49.138;10.090;2022-10-23T00:50:15;9.50;99.90
10314;DHT22;5202;49.138;10.090;2022-10-23T00:52:47;9.50;99.90
10314;DHT22;5202;49.138;10.090;2022-10-23T00:55:18;9.50;99.90
10314;DHT22;5202;49.138;10.090;2022-10-23T00:57:48;9.40;99.90
10314;DHT22;5202;49.138;10.090;2022-10-23T01:00:20;9.40;99.90
10314;DHT22;5202;49.138;10.090;2022-10-23T01:02:54;9.40;99.90
10314;DHT22;5202;49.138;10.090;2022-10-23T01:05:29;9.40;99.90
10314;DHT22;5202;49.138;10.090;2022-10-23T01:08:02;9.40;99.90
10314;DHT22;5202;49.138;10.090;2022-10-23T01:10:36;9.40;99.90
10314;DHT22;5202;49.138;10.090;2022-10-23T01:13:13;9.40;99.90
10314;DHT22;5202;49.138;10.090;2022-10-23T01:15:46;9.40;99.90
10314;DHT22;5202;49.138;10.090;2022-10-23T01:18:23;9.40;99.90
10314;DHT22;5202;49.138;10.090;2022-10-23T01:20:58;9.40;99.90
10314;DHT22;5202;49.138;10.090;2022-10-23T01:23:41;9.30;99.90
10314;DHT22;5202;49.138;10.090;2022-10-23T01:26:26;9.20;99.90
10314;DHT22;5202;49.138;10.090;2022-10-23T01:29:04;9.10;99.90
10314;DHT22;5202;49.138;10.090;2022-10-23T01:31:40;9.10;99.90
10314;DHT22;5202;49.138;10.090;2022-10-23T01:34:14;9.20;99.90
10314;DHT22;5202;49.138;10.090;2022-10-23T01:36:46;9.20;99.90
10314;DHT22;5202;49.138;10.090;2022-10-23T01:39:20;9.20;99.90
10314;DHT22;5202;49.138;10.090;2022-10-23T01:41:53;9.20;99.90
10314;DHT22;5202;49.138;10.090;2022-10-23T01:44:31;9.30;99.90
10314;DHT22;5202;49.138;10.090;2022-10-23T01:47:04;9.30;99.90
10314;DHT22;5202;49.138;10.090;2022-10-23T01:49:45;9.20;99.90
10314;DHT22;5202;49.138;10.090;2022-10-23T01:52:16;9.20;99.90
10314;DHT22;5202;49.138;10.090;2022-10-23T01:54:49;9.20;99.90
10314;DHT22;5202;49.138;10.090;2022-10-23T01:57:19;9.10;99.90
10314;DHT22;5202;49.138;10.090;2022-10-23T01:59:54;9.10;99.90
10314;DHT22;5202;49.138;10.090;2022-10-23T02:02:25;9.00;99.90
10314;DHT22;5202;49.138;10.090;2022-10-23T02:04:57;9.00;99.90
10314;DHT22;5202;49.138;10.090;2022-10-23T02:07:28;8.90;99.90
10314;DHT22;5202;49.138;10.090;2022-10-23T02:09:58;8.80;99.90
10314;DHT22;5202;49.138;10.090;2022-10-23T02:12:30;8.80;99.90
10314;DHT22;5202;49.138;10.090;2022-10-23T02:15:08;8.70;99.90
10314;DHT22;5202;49.138;10.090;2022-10-23T02:17:46;8.70;99.90
10314;DHT22;5202;49.138;10.090;2022-10-23T02:20:21;8.70;99.90
10314;DHT22;5202;49.138;10.090;2022-10-23T02:22:58;8.70;99.90
10314;DHT22;5202;49.138;10.090;2022-10-23T02:25:34;8.70;99.90
10314;DHT22;5202;49.138;10.090;2022-10-23T02:28:23;8.70;99.90
10314;DHT22;5202;49.138;10.090;2022-10-23T02:31:00;8.70;99.90
10314;DHT22;5202;49.138;10.090;2022-10-23T02:33:30;8.60;99.90
10314;DHT22;5202;49.138;10.090;2022-10-23T02:35:59;8.60;99.90
10314;DHT22;5202;49.138;10.090;2022-10-23T02:38:31;8.50;99.90
10314;DHT22;5202;49.138;10.090;2022-10-23T02:41:20;8.50;99.90
10314;DHT22;5202;49.138;10.090;2022-10-23T02:44:09;8.50;99.90
10314;DHT22;5202;49.138;10.090;2022-10-23T02:46:49;8.50;99.90
10314;DHT22;5202;49.138;10.090;2022-10-23T02:49:25;8.50;99.90
10314;DHT22;5202;49.138;10.090;2022-10-23T02:52:04;8.50;99.90
10314;DHT22;5202;49.138;10.090;2022-10-23T02:54:53;8.50;99.90
10314;DHT22;5202;49.138;10.090;2022-10-23T02:57:43;8.60;99.90
10314;DHT22;5202;49.138;10.090;2022-10-23T03:00:16;8.70;99.90
10314;DHT22;5202;49.138;10.090;2022-10-23T03:02:53;8.70;99.90
10314;DHT22;5202;49.138;10.090;2022-10-23T03:05:29;8.80;99.90
10314;DHT22;5202;49.138;10.090;2022-10-23T03:07:59;8.90;99.90
10314;DHT22;5202;49.138;10.090;2022-10-23T03:10:30;9.00;99.90
10314;DHT22;5202;49.138;10.090;2022-10-23T03:12:58;9.00;99.90
10314;DHT22;5202;49.138;10.090;2022-10-23T03:15:31;9.10;99.90
10314;DHT22;5202;49.138;10.090;2022-10-23T03:18:01;9.20;99.90
10314;DHT22;5202;49.138;10.090;2022-10-23T03:20:29;9.20;99.90
10314;DHT22;5202;49.138;10.090;2022-10-23T03:22:58;9.20;99.90
10314;DHT22;5202;49.138;10.090;2022-10-23T03:25:27;9.30;99.90
10314;DHT22;5202;49.138;10.090;2022-10-23T03:27:57;9.40;99.90
10314;DHT22;5202;49.138;10.090;2022-10-23T03:30:26;9.60;99.90
10314;DHT22;5202;49.138;10.090;2022-10-23T03:32:54;9.60;99.90
10314;DHT22;5202;49.138;10.090;2022-10-23T03:35:24;9.60;99.90
10314;DHT22;5202;49.138;10.090;2022-10-23T03:37:52;9.70;99.90
10314;DHT22;5202;49.138;10.090;2022-10-23T03:40:23;9.80;99.90
10314;DHT22;5202;49.138;10.090;2022-10-23T03:42:52;9.90;99.90
10314;DHT22;5202;49.138;10.090;2022-10-23T03:45:20;9.90;99.90
10314;DHT22;5202;49.138;10.090;2022-10-23T03:47:48;9.90;99.90
10314;DHT22;5202;49.138;10.090;2022-10-23T03:50:18;9.90;99.90
10314;DHT22;5202;49.138;10.090;2022-10-23T03:52:48;9.90;99.90
10314;DHT22;5202;49.138;10.090;2022-10-23T03:55:16;9.90;99.90
10314;DHT22;5202;49.138;10.090;2022-10-23T03:57:45;9.90;99.90
10314;DHT22;5202;49.138;10.090;2022-10-23T04:00:13;10.00;99.90
10314;DHT22;5202;49.138;10.090;2022-10-23T04:02:42;10.00;99.90
10314;DHT22;5202;49.138;10.090;2022-10-23T04:05:14;10.00;99.90
10314;DHT22;5202;49.138;10.090;2022-10-23T04:07:52;10.10;99.90
10314;DHT22;5202;49.138;10.090;2022-10-23T04:10:21;10.10;99.90
10314;DHT22;5202;49.138;10.090;2022-10-23T04:12:49;10.10;99.90
10314;DHT22;5202;49.138;10.090;2022-10-23T04:15:18;10.20;99.90
10314;DHT22;5202;49.138;10.090;2022-10-23T04:17:46;10.30;99.90
10314;DHT22;5202;49.138;10.090;2022-10-23T04:20:15;10.30;99.90
10314;DHT22;5202;49.138;10.090;2022-10-23T04:22:43;10.40;99.90
10314;DHT22;5202;49.138;10.090;2022-10-23T04:25:13;10.40;99.90
10314;DHT22;5202;49.138;10.090;2022-10-23T04:27:44;10.40;99.90
10314;DHT22;5202;49.138;10.090;2022-10-23T04:30:13;10.40;99.90
10314;DHT22;5202;49.138;10.090;2022-10-23T04:32:42;10.40;99.90
10314;DHT22;5202;49.138;10.090;2022-10-23T04:35:10;10.40;99.90
10314;DHT22;5202;49.138;10.090;2022-10-23T04:37:38;10.50;99.90
10314;DHT22;5202;49.138;10.090;2022-10-23T04:40:08;10.40;99.90
10314;DHT22;5202;49.138;10.090;2022-10-23T04:42:39;10.40;99.90
10314;DHT22;5202;49.138;10.090;2022-10-23T04:45:08;10.40;99.90
10314;DHT22;5202;49.138;10.090;2022-10-23T04:47:40;10.40;99.90
10314;DHT22;5202;49.138;10.090;2022-10-23T04:50:08;10.40;99.90
10314;DHT22;5202;49.138;10.090;2022-10-23T04:52:56;10.40;99.90
10314;DHT22;5202;49.138;10.090;2022-10-23T04:55:48;10.40;99.90
10314;DHT22;5202;49.138;10.090;2022-10-23T04:58:25;10.40;99.90
10314;DHT22;5202;49.138;10.090;2022-10-23T05:00:57;10.40;99.90
10314;DHT22;5202;49.138;10.090;2022-10-23T05:03:25;10.40;99.90
10314;DHT22;5202;49.138;10.090;2022-10-23T05:05:55;10.40;99.90
10314;DHT22;5202;49.138;10.090;2022-10-23T05:08:24;10.40;99.90
10314;DHT22;5202;49.138;10.090;2022-10-23T05:11:07;10.40;99.90
10314;DHT22;5202;49.138;10.090;2022-10-23T05:13:42;10.40;99.90
10314;DHT22;5202;49.138;10.090;2022-10-23T05:16:12;10.40;99.90
10314;DHT22;5202;49.138;10.090;2022-10-23T05:18:52;10.40;99.90
10314;DHT22;5202;49.138;10.090;2022-10-23T05:21:22;10.50;99.90
10314;DHT22;5202;49.138;10.090;2022-10-23T05:23:52;10.50;99.90
10314;DHT22;5202;49.138;10.090;2022-10-23T05:26:21;10.50;99.90
10314;DHT22;5202;49.138;10.090;2022-10-23T05:28:53;10.50;99.90
10314;DHT22;5202;49.138;10.090;2022-10-23T05:31:22;10.50;99.90
10314;DHT22;5202;49.138;10.090;2022-10-23T05:33:55;10.50;99.90
10314;DHT22;5202;49.138;10.090;2022-10-23T05:36:24;10.60;99.90
10314;DHT22;5202;49.138;10.090;2022-10-23T05:38:56;10.60;99.90
10314;DHT22;5202;49.138;10.090;2022-10-23T05:41:25;10.60;99.90
10314;DHT22;5202;49.138;10.090;2022-10-23T05:43:58;10.60;99.90
10314;DHT22;5202;49.138;10.090;2022-10-23T05:46:45;10.60;99.90
10314;DHT22;5202;49.138;10.090;2022-10-23T05:49:39;10.50;99.90
10314;DHT22;5202;49.138;10.090;2022-10-23T05:52:33;10.50;99.90
10314;DHT22;5202;49.138;10.090;2022-10-23T05:55:09;10.50;99.90
10314;DHT22;5202;49.138;10.090;2022-10-23T05:58:06;10.60;99.90
10314;DHT22;5202;49.138;10.090;2022-10-23T06:00:58;10.60;99.90
10314;DHT22;5202;49.138;10.090;2022-10-23T06:03:50;10.70;99.90
10314;DHT22;5202;49.138;10.090;2022-10-23T06:06:30;10.70;99.90
10314;DHT22;5202;49.138;10.090;2022-10-23T06:08:59;10.80;99.90
10314;DHT22;5202;49.138;10.090;2022-10-23T06:11:28;10.80;99.90
10314;DHT22;5202;49.138;10.090;2022-10-23T06:14:02;10.90;99.90
10314;DHT22;5202;49.138;10.090;2022-10-23T06:16:32;10.90;99.90
10314;DHT22;5202;49.138;10.090;2022-10-23T06:19:01;10.90;99.90
10314;DHT22;5202;49.138;10.090;2022-10-23T06:21:29;10.90;99.90
10314;DHT22;5202;49.138;10.090;2022-10-23T06:23:58;11.00;99.90
10314;DHT22;5202;49.138;10.090;2022-10-23T06:26:37;11.00;99.90
10314;DHT22;5202;49.138;10.090;2022-10-23T06:29:21;11.00;99.90
10314;DHT22;5202;49.138;10.090;2022-10-23T06:31:51;11.10;99.90
10314;DHT22;5202;49.138;10.090;2022-10-23T06:34:19;11.10;99.90
10314;DHT22;5202;49.138;10.090;2022-10-23T06:36:47;11.10;99.90
10314;DHT22;5202;49.138;10.090;2022-10-23T06:39:39;11.20;99.90
10314;DHT22;5202;49.138;10.090;2022-10-23T06:42:20;11.20;99.90
10314;DHT22;5202;49.138;10.090;2022-10-23T06:44:55;11.30;99.90
10314;DHT22;5202;49.138;10.090;2022-10-23T06:47:49;11.30;99.90
10314;DHT22;5202;49.138;10.090;2022-10-23T06:50:51;11.30;99.90
10314;DHT22;5202;49.138;10.090;2022-10-23T06:53:32;11.40;99.90
10314;DHT22;5202;49.138;10.090;2022-10-23T06:56:09;11.40;99.90
10314;DHT22;5202;49.138;10.090;2022-10-23T06:58:39;11.40;99.90
10314;DHT22;5202;49.138;10.090;2022-10-23T07:01:14;11.50;99.90
10314;DHT22;5202;49.138;10.090;2022-10-23T07:03:47;11.50;99.90
10314;DHT22;5202;49.138;10.090;2022-10-23T07:06:20;11.50;99.90
10314;DHT22;5202;49.138;10.090;2022-10-23T07:08:48;11.60;99.90
10314;DHT22;5202;49.138;10.090;2022-10-23T07:11:36;11.60;99.90
10314;DHT22;5202;49.138;10.090;2022-10-23T07:14:05;11.70;99.90
10314;DHT22;5202;49.138;10.090;2022-10-23T07:16:33;11.70;99.90
10314;DHT22;5202;49.138;10.090;2022-10-23T07:19:03;11.80;99.90
10314;DHT22;5202;49.138;10.090;2022-10-23T07:21:51;11.90;99.90
10314;DHT22;5202;49.138;10.090;2022-10-23T07:24:38;11.90;99.90
10314;DHT22;5202;49.138;10.090;2022-10-23T07:27:17;12.00;99.90
10314;DHT22;5202;49.138;10.090;2022-10-23T07:29:52;12.00;99.90
10314;DHT22;5202;49.138;10.090;2022-10-23T07:32:21;12.00;99.90
10314;DHT22;5202;49.138;10.090;2022-10-23T07:35:07;12.10;99.90
10314;DHT22;5202;49.138;10.090;2022-10-23T07:37:39;12.10;99.90
10314;DHT22;5202;49.138;10.090;2022-10-23T07:40:08;12.20;99.90
10314;DHT22;5202;49.138;10.090;2022-10-23T07:42:42;12.20;99.90
10314;DHT22;5202;49.138;10.090;2022-10-23T07:45:11;12.30;99.90
10314;DHT22;5202;49.138;10.090;2022-10-23T07:47:42;12.30;99.90
10314;DHT22;5202;49.138;10.090;2022-10-23T07:50:14;12.40;99.90
10314;DHT22;5202;49.138;10.090;2022-10-23T07:52:42;12.40;99.90
10314;DHT22;5202;49.138;10.090;2022-10-23T07:55:13;12.50;99.90
10314;DHT22;5202;49.138;10.090;2022-10-23T07:57:57;12.50;99.90
10314;DHT22;5202;49.138;10.090;2022-10-23T08:00:40;12.50;99.90
10314;DHT22;5202;49.138;10.090;2022-10-23T08:03:15;12.60;99.90
10314;DHT22;5202;49.138;10.090;2022-10-23T08:05:45;12.60;99.90
10314;DHT22;5202;49.138;10.090;2022-10-23T08:08:13;12.60;99.90
10314;DHT22;5202;49.138;10.090;2022-10-23T08:10:46;12.70;99.90
10314;DHT22;5202;49.138;10.090;2022-10-23T08:13:21;12.70;99.90
10314;DHT22;5202;49.138;10.090;2022-10-23T08:15:55;12.80;99.90
10314;DHT22;5202;49.138;10.090;2022-10-23T08:18:42;12.90;99.90
10314;DHT22;5202;49.138;10.090;2022-10-23T08:21:12;13.10;99.90
10314;DHT22;5202;49.138;10.090;2022-10-23T08:23:41;13.20;99.90
10314;DHT22;5202;49.138;10.090;2022-10-23T08:26:10;13.30;99.90
10314;DHT22;5202;49.138;10.090;2022-10-23T08:28:40;13.40;99.90
10314;DHT22;5202;49.138;10.090;2022-10-23T08:31:11;13.40;99.90
10314;DHT22;5202;49.138;10.090;2022-10-23T08:34:03;13.50;99.90
10314;DHT22;5202;49.138;10.090;2022-10-23T08:36:33;13.50;99.90
10314;DHT22;5202;49.138;10.090;2022-10-23T08:39:03;13.50;99.90
10314;DHT22;5202;49.138;10.090;2022-10-23T08:41:36;13.50;99.90
10314;DHT22;5202;49.138;10.090;2022-10-23T08:44:17;13.60;99.90
10314;DHT22;5202;49.138;10.090;2022-10-23T08:46:51;13.70;99.90
10314;DHT22;5202;49.138;10.090;2022-10-23T08:49:54;13.70;99.90
10314;DHT22;5202;49.138;10.090;2022-10-23T08:52:31;13.90;99.90
10314;DHT22;5202;49.138;10.090;2022-10-23T08:55:11;14.00;99.90
10314;DHT22;5202;49.138;10.090;2022-10-23T08:57:51;14.10;99.90
10314;DHT22;5202;49.138;10.090;2022-10-23T09:00:22;14.20;99.90
10314;DHT22;5202;49.138;10.090;2022-10-23T09:02:51;14.40;99.90
10314;DHT22;5202;49.138;10.090;2022-10-23T09:05:26;14.60;99.90
10314;DHT22;5202;49.138;10.090;2022-10-23T09:08:10;14.70;99.90
10314;DHT22;5202;49.138;10.090;2022-10-23T09:10:59;14.80;99.90
10314;DHT22;5202;49.138;10.090;2022-10-23T09:13:52;14.90;99.90
10314;DHT22;5202;49.138;10.090;2022-10-23T09:16:35;15.10;99.90
10314;DHT22;5202;49.138;10.090;2022-10-23T09:19:14;15.20;99.90
10314;DHT22;5202;49.138;10.090;2022-10-23T09:21:46;15.30;99.90
10314;DHT22;5202;49.138;10.090;2022-10-23T09:24:20;15.50;99.90
10314;DHT22;5202;49.138;10.090;2022-10-23T09:26:51;15.50;99.90
10314;DHT22;5202;49.138;10.090;2022-10-23T09:29:22;15.60;99.90
10314;DHT22;5202;49.138;10.090;2022-10-23T09:31:53;15.70;99.90
10314;DHT22;5202;49.138;10.090;2022-10-23T09:34:24;15.80;99.90
10314;DHT22;5202;49.138;10.090;2022-10-23T09:36:55;15.80;99.90
10314;DHT22;5202;49.138;10.090;2022-10-23T09:39:29;15.90;99.90
10314;DHT22;5202;49.138;10.090;2022-10-23T09:41:59;16.00;99.90
10314;DHT22;5202;49.138;10.090;2022-10-23T09:44:29;16.10;99.90
10314;DHT22;5202;49.138;10.090;2022-10-23T09:47:08;16.20;99.90
10314;DHT22;5202;49.138;10.090;2022-10-23T09:49:39;16.30;99.90
10314;DHT22;5202;49.138;10.090;2022-10-23T09:52:23;16.30;99.90
10314;DHT22;5202;49.138;10.090;2022-10-23T09:54:58;16.50;99.90
10314;DHT22;5202;49.138;10.090;2022-10-23T09:57:29;16.70;99.90
10314;DHT22;5202;49.138;10.090;2022-10-23T10:00:03;16.80;99.90
10314;DHT22;5202;49.138;10.090;2022-10-23T10:02:40;17.00;99.90
10314;DHT22;5202;49.138;10.090;2022-10-23T10:05:36;17.10;99.90
10314;DHT22;5202;49.138;10.090;2022-10-23T10:08:26;17.20;99.90
10314;DHT22;5202;49.138;10.090;2022-10-23T10:11:08;17.40;99.90
10314;DHT22;5202;49.138;10.090;2022-10-23T10:14:03;17.50;99.90
10314;DHT22;5202;49.138;10.090;2022-10-23T10:16:48;17.70;99.80
10314;DHT22;5202;49.138;10.090;2022-10-23T10:19:26;17.90;99.30
10314;DHT22;5202;49.138;10.090;2022-10-23T10:22:04;18.10;98.50
10314;DHT22;5202;49.138;10.090;2022-10-23T10:24:44;18.20;99.20
10314;DHT22;5202;49.138;10.090;2022-10-23T10:27:24;18.40;99.80
10314;DHT22;5202;49.138;10.090;2022-10-23T10:30:06;18.50;98.90
10314;DHT22;5202;49.138;10.090;2022-10-23T10:32:42;18.60;98.50
10314;DHT22;5202;49.138;10.090;2022-10-23T10:35:27;18.70;98.40
10314;DHT22;5202;49.138;10.090;2022-10-23T10:38:17;18.90;98.30
10314;DHT22;5202;49.138;10.090;2022-10-23T10:41:21;19.00;97.60
10314;DHT22;5202;49.138;10.090;2022-10-23T10:44:11;19.00;97.50
10314;DHT22;5202;49.138;10.090;2022-10-23T10:46:50;19.10;97.10
10314;DHT22;5202;49.138;10.090;2022-10-23T10:49:31;19.20;97.40
10314;DHT22;5202;49.138;10.090;2022-10-23T10:52:33;19.30;97.20
10314;DHT22;5202;49.138;10.090;2022-10-23T10:55:13;19.50;97.30
10314;DHT22;5202;49.138;10.090;2022-10-23T10:57:47;19.60;96.80
10314;DHT22;5202;49.138;10.090;2022-10-23T11:00:20;19.80;96.40
10314;DHT22;5202;49.138;10.090;2022-10-23T11:02:53;19.90;96.60
10314;DHT22;5202;49.138;10.090;2022-10-23T11:05:30;20.10;96.40
10314;DHT22;5202;49.138;10.090;2022-10-23T11:08:03;20.10;96.20
10314;DHT22;5202;49.138;10.090;2022-10-23T11:10:35;20.10;95.70
10314;DHT22;5202;49.138;10.090;2022-10-23T11:13:17;20.00;95.70
10314;DHT22;5202;49.138;10.090;2022-10-23T11:15:54;20.00;96.00
10314;DHT22;5202;49.138;10.090;2022-10-23T11:18:27;20.00;95.90
10314;DHT22;5202;49.138;10.090;2022-10-23T11:21:04;20.10;96.40
10314;DHT22;5202;49.138;10.090;2022-10-23T11:27:30;20.40;95.70
10314;DHT22;5202;49.138;10.090;2022-10-23T11:30:16;20.40;95.30
10314;DHT22;5202;49.138;10.090;2022-10-23T11:36:04;20.50;95.30
10314;DHT22;5202;49.138;10.090;2022-10-23T11:38:37;20.60;95.70
10314;DHT22;5202;49.138;10.090;2022-10-23T11:41:16;20.60;95.70
10314;DHT22;5202;49.138;10.090;2022-10-23T11:43:54;20.60;95.70
10314;DHT22;5202;49.138;10.090;2022-10-23T11:46:32;20.60;95.00
10314;DHT22;5202;49.138;10.090;2022-10-23T11:49:04;20.50;94.30
10314;DHT22;5202;49.138;10.090;2022-10-23T11:51:35;20.50;94.70
10314;DHT22;5202;49.138;10.090;2022-10-23T11:54:19;20.50;94.70
10314;DHT22;5202;49.138;10.090;2022-10-23T11:56:54;20.50;94.80
10314;DHT22;5202;49.138;10.090;2022-10-23T11:59:41;20.50;95.10
10314;DHT22;5202;49.138;10.090;2022-10-23T12:02:29;20.50;95.40
10314;DHT22;5202;49.138;10.090;2022-10-23T12:05:03;20.50;95.30
10314;DHT22;5202;49.138;10.090;2022-10-23T12:07:35;20.50;95.10
10314;DHT22;5202;49.138;10.090;2022-10-23T12:10:15;20.50;95.50
10314;DHT22;5202;49.138;10.090;2022-10-23T12:12:54;20.40;95.30
10314;DHT22;5202;49.138;10.090;2022-10-23T12:15:25;20.40;95.20
10314;DHT22;5202;49.138;10.090;2022-10-23T12:18:06;20.40;95.30
10314;DHT22;5202;49.138;10.090;2022-10-23T12:20:39;20.40;95.10
10314;DHT22;5202;49.138;10.090;2022-10-23T12:23:42;20.40;95.20
10314;DHT22;5202;49.138;10.090;2022-10-23T12:26:22;20.30;95.00
10314;DHT22;5202;49.138;10.090;2022-10-23T12:29:08;20.30;95.40
10314;DHT22;5202;49.138;10.090;2022-10-23T12:31:45;20.30;95.80
10314;DHT22;5202;49.138;10.090;2022-10-23T12:34:29;20.20;95.40
10314;DHT22;5202;49.138;10.090;2022-10-23T12:37:18;20.10;95.90
10314;DHT22;5202;49.138;10.090;2022-10-23T12:39:55;20.10;96.20
10314;DHT22;5202;49.138;10.090;2022-10-23T12:42:26;20.00;97.40
10314;DHT22;5202;49.138;10.090;2022-10-23T12:44:59;19.90;97.50
10314;DHT22;5202;49.138;10.090;2022-10-23T12:47:29;19.80;98.00
10314;DHT22;5202;49.138;10.090;2022-10-23T12:49:57;19.70;97.60
10314;DHT22;5202;49.138;10.090;2022-10-23T12:52:27;19.70;98.40
10314;DHT22;5202;49.138;10.090;2022-10-23T12:54:55;19.60;98.20
10314;DHT22;5202;49.138;10.090;2022-10-23T12:57:27;19.50;97.90
10314;DHT22;5202;49.138;10.090;2022-10-23T12:59:57;19.50;98.50
10314;DHT22;5202;49.138;10.090;2022-10-23T13:02:30;19.40;98.70
10314;DHT22;5202;49.138;10.090;2022-10-23T13:05:00;19.30;99.00
10314;DHT22;5202;49.138;10.090;2022-10-23T13:07:34;19.20;98.20
10314;DHT22;5202;49.138;10.090;2022-10-23T13:10:06;19.30;98.10
10314;DHT22;5202;49.138;10.090;2022-10-23T13:12:42;19.30;97.80
10314;DHT22;5202;49.138;10.090;2022-10-23T13:15:17;19.40;97.80
10314;DHT22;5202;49.138;10.090;2022-10-23T13:17:58;19.50;97.90
10314;DHT22;5202;49.138;10.090;2022-10-23T13:20:29;19.50;97.90
10314;DHT22;5202;49.138;10.090;2022-10-23T13:23:10;19.50;97.90
10314;DHT22;5202;49.138;10.090;2022-10-23T13:25:52;19.60;98.00
10314;DHT22;5202;49.138;10.090;2022-10-23T13:28:24;19.80;97.90
10314;DHT22;5202;49.138;10.090;2022-10-23T13:31:07;19.90;97.40
10314;DHT22;5202;49.138;10.090;2022-10-23T13:34:03;20.10;97.40
10314;DHT22;5202;49.138;10.090;2022-10-23T13:36:35;20.30;96.90
10314;DHT22;5202;49.138;10.090;2022-10-23T13:39:14;20.40;96.70
10314;DHT22;5202;49.138;10.090;2022-10-23T13:41:43;20.50;96.70
10314;DHT22;5202;49.138;10.090;2022-10-23T13:44:18;20.60;96.60
10314;DHT22;5202;49.138;10.090;2022-10-23T13:46:47;20.80;96.40
10314;DHT22;5202;49.138;10.090;2022-10-23T13:49:18;21.20;96.10
10314;DHT22;5202;49.138;10.090;2022-10-23T13:51:51;21.60;95.30
10314;DHT22;5202;49.138;10.090;2022-10-23T13:54:23;22.00;94.70
10314;DHT22;5202;49.138;10.090;2022-10-23T13:56:58;22.30;94.80
10314;DHT22;5202;49.138;10.090;2022-10-23T13:59:26;22.70;94.20
10314;DHT22;5202;49.138;10.090;2022-10-23T14:01:54;23.00;93.10
10314;DHT22;5202;49.138;10.090;2022-10-23T14:04:23;23.10;92.40
10314;DHT22;5202;49.138;10.090;2022-10-23T14:06:53;23.20;91.80
10314;DHT22;5202;49.138;10.090;2022-10-23T14:09:25;23.20;91.60
10314;DHT22;5202;49.138;10.090;2022-10-23T14:11:54;23.20;91.60
10314;DHT22;5202;49.138;10.090;2022-10-23T14:14:22;23.20;92.40
10314;DHT22;5202;49.138;10.090;2022-10-23T14:16:50;23.30;92.70
10314;DHT22;5202;49.138;10.090;2022-10-23T14:19:19;23.40;93.00
10314;DHT22;5202;49.138;10.090;2022-10-23T14:21:47;23.40;93.40
10314;DHT22;5202;49.138;10.090;2022-10-23T14:24:15;23.60;93.70
10314;DHT22;5202;49.138;10.090;2022-10-23T14:26:45;23.70;93.20
10314;DHT22;5202;49.138;10.090;2022-10-23T14:29:13;23.70;93.10
10314;DHT22;5202;49.138;10.090;2022-10-23T14:31:50;23.40;93.30
10314;DHT22;5202;49.138;10.090;2022-10-23T14:34:18;23.10;93.50
10314;DHT22;5202;49.138;10.090;2022-10-23T14:36:46;22.70;93.80
10314;DHT22;5202;49.138;10.090;2022-10-23T14:39:22;22.40;94.30
10314;DHT22;5202;49.138;10.090;2022-10-23T14:41:52;22.10;94.60
10314;DHT22;5202;49.138;10.090;2022-10-23T14:44:20;21.70;94.80
10314;DHT22;5202;49.138;10.090;2022-10-23T14:46:48;21.50;95.30
10314;DHT22;5202;49.138;10.090;2022-10-23T14:49:17;21.20;95.80
10314;DHT22;5202;49.138;10.090;2022-10-23T14:51:45;21.00;96.20
10314;DHT22;5202;49.138;10.090;2022-10-23T14:54:14;20.80;96.80
10314;DHT22;5202;49.138;10.090;2022-10-23T14:56:42;20.70;97.20
10314;DHT22;5202;49.138;10.090;2022-10-23T14:59:12;20.60;97.60
10314;DHT22;5202;49.138;10.090;2022-10-23T15:01:42;20.40;97.60
10314;DHT22;5202;49.138;10.090;2022-10-23T15:04:14;20.30;98.00
10314;DHT22;5202;49.138;10.090;2022-10-23T15:06:43;20.10;97.80
10314;DHT22;5202;49.138;10.090;2022-10-23T15:09:12;20.00;98.20
10314;DHT22;5202;49.138;10.090;2022-10-23T15:11:41;19.90;98.60
10314;DHT22;5202;49.138;10.090;2022-10-23T15:14:09;19.80;98.70
10314;DHT22;5202;49.138;10.090;2022-10-23T15:16:39;19.70;99.10
10314;DHT22;5202;49.138;10.090;2022-10-23T15:19:08;19.60;99.10
10314;DHT22;5202;49.138;10.090;2022-10-23T15:21:47;19.50;99.10
10314;DHT22;5202;49.138;10.090;2022-10-23T15:24:16;19.40;99.30
10314;DHT22;5202;49.138;10.090;2022-10-23T15:26:46;19.30;99.70
10314;DHT22;5202;49.138;10.090;2022-10-23T15:29:16;19.20;99.60
10314;DHT22;5202;49.138;10.090;2022-10-23T15:31:48;19.10;99.90
10314;DHT22;5202;49.138;10.090;2022-10-23T15:34:22;19.00;99.90
10314;DHT22;5202;49.138;10.090;2022-10-23T15:36:52;18.90;99.90
10314;DHT22;5202;49.138;10.090;2022-10-23T15:39:22;18.80;99.90
10314;DHT22;5202;49.138;10.090;2022-10-23T15:41:53;18.70;99.90
10314;DHT22;5202;49.138;10.090;2022-10-23T15:44:25;18.60;99.90
10314;DHT22;5202;49.138;10.090;2022-10-23T15:46:56;18.50;99.90
10314;DHT22;5202;49.138;10.090;2022-10-23T15:49:25;18.40;99.90
10314;DHT22;5202;49.138;10.090;2022-10-23T15:51:55;18.30;99.90
10314;DHT22;5202;49.138;10.090;2022-10-23T15:54:24;18.30;99.90
10314;DHT22;5202;49.138;10.090;2022-10-23T15:56:57;18.20;99.90
10314;DHT22;5202;49.138;10.090;2022-10-23T15:59:27;18.10;99.90
10314;DHT22;5202;49.138;10.090;2022-10-23T16:01:59;18.00;99.90
10314;DHT22;5202;49.138;10.090;2022-10-23T16:04:53;18.00;99.90
10314;DHT22;5202;49.138;10.090;2022-10-23T16:07:21;17.90;99.90
10314;DHT22;5202;49.138;10.090;2022-10-23T16:09:50;17.90;99.90
10314;DHT22;5202;49.138;10.090;2022-10-23T16:12:18;17.90;99.90
10314;DHT22;5202;49.138;10.090;2022-10-23T16:14:47;17.70;99.90
10314;DHT22;5202;49.138;10.090;2022-10-23T16:17:17;17.70;99.90
10314;DHT22;5202;49.138;10.090;2022-10-23T16:19:45;17.60;99.90
10314;DHT22;5202;49.138;10.090;2022-10-23T16:22:14;17.60;99.90
10314;DHT22;5202;49.138;10.090;2022-10-23T16:24:43;17.50;99.90
10314;DHT22;5202;49.138;10.090;2022-10-23T16:27:11;17.50;99.90
10314;DHT22;5202;49.138;10.090;2022-10-23T16:29:39;17.40;99.90
10314;DHT22;5202;49.138;10.090;2022-10-23T16:32:08;17.40;99.90